Time;durP1;ratioP1;P1;durP2;ratioP2;P2;SDS_P1;SDS_P2;PMS_P1;PMS_P2;Temp;Humidity;BMP_temperature;BMP_pressure;BME280_temperature;BME280_humidity;BME280_pressure;Samples;Min_cycle;Max_cycle;Signal;HPM_P1;HPM_P2
2023/05/17 07:23:25;;;;;;;12.10;4.00;;;;;;;-145.79;58.70;78806.16;5320356;27;1222431;-68
2023/05/17 07:25:56;;;;;;;11.38;3.30;;;;;;;-145.79;56.64;78812.53;5342391;28;20027;-69
2023/05/17 07:28:28;;;;;;;10.43;3.20;;;;;;;-145.79;56.46;78795.56;5332621;28;20031;-70
2023/05/17 07:31:00;;;;;;;9.77;2.95;;;;;;;-145.79;56.02;78797.69;5343074;28;20382;-70
2023/05/17 07:33:32;;;;;;;9.27;3.70;;;;;;;-145.79;57.30;78787.06;5328410;28;20382;-70
2023/05/17 07:36:04;;;;;;;10.30;2.95;;;;;;;-145.79;57.91;78759.50;5335828;28;20032;-68
2023/05/17 07:38:35;;;;;;;11.20;4.22;;;;;;;-145.79;55.23;78780.72;5342357;28;20073;-69
2023/05/17 07:41:11;;;;;;;10.45;4.45;;;;;;;-145.79;54.33;78784.97;5342608;28;20103;-68
2023/05/17 07:43:42;;;;;;;;;;;;;;;-145.79;56.05;78774.34;5343512;28;20027;-69
2023/05/17 07:46:13;;;;;;;13.35;3.08;;;;;;;-145.79;55.11;78776.47;5334905;28;20350;-69
2023/05/17 07:48:45;;;;;;;7.35;2.90;;;;;;;-145.79;53.57;78778.59;5341989;28;20027;-69
2023/05/17 07:51:16;;;;;;;13.82;3.95;;;;;;;-145.79;53.39;78784.97;5326606;28;20486;-69
2023/05/17 07:53:47;;;;;;;13.45;4.38;;;;;;;-145.79;53.89;78770.13;5342947;28;20043;-69
2023/05/17 07:56:19;;;;;;;9.82;2.83;;;;;;;-145.79;54.30;78772.22;5342868;28;20019;-68
2023/05/17 07:58:50;;;;;;;6.40;3.47;;;;;;;-145.79;52.40;78774.34;5342356;28;20485;-69
2023/05/17 08:01:25;;;;;;;9.32;2.95;;;;;;;-145.79;51.08;78763.75;5337293;28;20032;-69
2023/05/17 08:03:56;;;;;;;10.98;3.35;;;;;;;-145.79;50.45;78748.91;5336160;28;20044;-70
2023/05/17 08:06:28;;;;;;;10.38;2.58;;;;;;;-145.79;50.93;78721.34;5324515;28;20056;-69
2023/05/17 08:08:59;;;;;;;7.03;2.83;;;;;;;-145.79;50.17;78727.72;5342886;28;20088;-71
2023/05/17 08:11:32;;;;;;;11.35;2.80;;;;;;;-145.79;49.19;78723.47;5342169;28;20057;-70
2023/05/17 08:14:04;;;;;;;9.25;2.90;;;;;;;-145.79;51.03;78687.41;5341385;28;20124;-70
2023/05/17 08:16:35;;;;;;;8.57;2.78;;;;;;;-145.79;48.71;78681.06;5342665;28;20521;-70
2023/05/17 08:19:07;;;;;;;10.27;2.80;;;;;;;-145.79;50.20;78661.97;5331322;28;20020;-69
2023/05/17 08:21:39;;;;;;;7.55;2.40;;;;;;;-145.79;50.58;78640.78;5341351;28;20118;-69
2023/05/17 08:24:11;;;;;;;9.25;3.13;;;;;;;-145.79;52.62;78615.34;5341570;28;20080;-70
2023/05/17 08:26:42;;;;;;;9.48;2.38;;;;;;;-145.79;52.61;78596.25;5339853;28;20034;-70
2023/05/17 08:29:14;;;;;;;6.55;2.50;;;;;;;-145.79;47.27;78608.97;5342492;28;20024;-69
2023/05/17 08:31:45;;;;;;;6.93;3.03;;;;;;;-145.79;48.21;78589.88;5347879;28;20078;-70
2023/05/17 08:34:16;;;;;;;5.50;3.15;;;;;;;-145.79;48.16;78604.72;5337006;28;20099;-71
2023/05/17 08:36:52;;;;;;;28.30;17.50;;;;;;;-145.79;47.84;78613.22;5321893;28;20020;-69
2023/05/17 08:39:23;;;;;;;8.82;2.78;;;;;;;-145.79;47.51;78611.09;5334731;28;20027;-72
2023/05/17 08:41:58;;;;;;;5.65;2.40;;;;;;;-145.79;46.45;78606.84;5334937;28;20065;-71
2023/05/17 08:44:29;;;;;;;8.87;2.43;;;;;;;-145.79;44.89;78611.09;5336245;28;20046;-72
2023/05/17 08:47:02;;;;;;;7.68;2.58;;;;;;;-145.79;45.33;78611.09;5315291;28;20103;-71
2023/05/17 08:50:25;;;;;;;7.80;2.35;;;;;;;-145.79;45.41;78604.72;5333694;28;20038;-79
2023/05/17 08:53:16;;;;;;;7.57;2.63;;;;;;;-145.79;45.89;78602.59;5322059;28;20025;-72
2023/05/17 08:55:50;;;;;;;12.13;7.47;;;;;;;-145.79;45.98;78594.13;5333605;28;20124;-72
2023/05/17 08:58:25;;;;;;;8.68;2.47;;;;;;;-145.79;46.63;78589.88;5326909;28;20080;-72
2023/05/17 09:00:58;;;;;;;10.57;2.70;;;;;;;-145.79;46.15;78596.25;5328018;28;20085;-71
2023/05/17 09:03:31;;;;;;;7.68;2.55;;;;;;;-145.79;45.26;78583.53;5326052;28;20579;-72
2023/05/17 09:06:02;;;;;;;7.00;2.75;;;;;;;-145.79;43.68;78592.00;5328509;28;20027;-72
2023/05/17 09:08:34;;;;;;;8.90;2.42;;;;;;;-145.79;42.59;78594.13;5326340;28;20481;-72
2023/05/17 09:11:05;;;;;;;5.53;2.13;;;;;;;-145.79;44.09;78608.97;5319021;28;20020;-73
2023/05/17 09:13:38;;;;;;;8.40;2.50;;;;;;;-145.79;45.12;78583.53;5328172;28;20076;-72
2023/05/17 09:16:13;;;;;;;6.65;2.53;;;;;;;-145.79;45.06;78596.25;5327290;28;20466;-72
2023/05/17 09:18:57;;;;;;;6.25;2.20;;;;;;;-145.79;47.47;78553.84;5323796;28;20016;-72
2023/05/17 09:21:30;;;;;;;6.57;2.80;;;;;;;-145.79;48.11;78547.47;5325532;28;20044;-73
2023/05/17 09:24:01;;;;;;;5.78;2.10;;;;;;;-145.79;49.25;78547.47;5324547;28;20459;-73
2023/05/17 09:26:43;;;;;;;7.13;2.42;;;;;;;-145.79;45.13;78551.72;5323249;28;20119;-73
2023/05/17 09:29:15;;;;;;;6.72;2.22;;;;;;;-145.79;45.38;78534.75;5326940;28;20023;-73
2023/05/17 09:31:46;;;;;;;9.75;2.55;;;;;;;-145.79;45.37;78530.53;5326682;28;20470;-73
2023/05/17 09:34:18;;;;;;;7.07;2.22;;;;;;;-145.79;44.09;78524.16;5314673;28;20106;-72
2023/05/17 09:36:50;;;;;;;5.70;2.38;;;;;;;-145.79;45.12;78511.44;5305050;28;20027;-73
2023/05/17 09:39:24;;;;;;;6.93;2.08;;;;;;;-145.79;44.34;78532.63;5305981;28;20020;-73
2023/05/17 09:41:56;;;;;;;6.30;2.28;;;;;;;-145.79;44.29;78539.00;5325829;28;20386;-73
2023/05/17 09:44:27;;;;;;;10.60;4.65;;;;;;;-145.79;44.45;78526.28;5315141;28;20028;-73
2023/05/17 09:46:58;;;;;;;7.95;2.90;;;;;;;-145.79;43.92;78519.91;5326329;28;20103;-72
2023/05/17 09:49:30;;;;;;;8.20;3.70;;;;;;;-145.79;46.12;78505.06;5326801;28;20080;-73
2023/05/17 09:52:07;;;;;;;6.50;2.65;;;;;;;-145.79;46.16;78498.72;5326157;28;20149;-73
2023/05/17 09:54:40;;;;;;;7.95;2.90;;;;;;;-145.79;45.94;78502.97;5325103;28;20066;-73
2023/05/17 09:57:11;;;;;;;9.55;3.40;;;;;;;-145.79;44.56;78543.25;5325424;28;20022;-76
2023/05/17 09:59:43;;;;;;;8.80;2.85;;;;;;;-145.79;45.09;78534.75;5325164;28;20031;-72
2023/05/17 10:02:36;;;;;;;6.97;2.30;;;;;;;-145.79;46.02;78517.81;5325433;28;20141;-71
2023/05/17 10:05:11;;;;;;;7.25;2.38;;;;;;;-145.79;43.32;78515.69;5324877;28;20019;-72
2023/05/17 10:07:44;;;;;;;4.72;2.17;;;;;;;-145.79;47.38;78494.47;5325343;28;20546;-74
2023/05/17 10:10:16;;;;;;;6.50;2.15;;;;;;;-145.79;44.04;78477.50;5325721;28;20553;-74
2023/05/17 10:12:49;;;;;;;7.47;3.35;;;;;;;-145.79;45.14;78471.16;5324143;28;20044;-74
2023/05/17 10:15:21;;;;;;;5.88;2.00;;;;;;;-145.79;43.06;78469.03;5324859;28;20466;-73
2023/05/17 10:17:53;;;;;;;8.65;2.28;;;;;;;-145.79;43.12;78460.56;5315710;28;20042;-77
2023/05/17 10:20:25;;;;;;;8.32;2.80;;;;;;;-145.79;41.52;78458.44;5324487;28;20119;-73
2023/05/17 10:22:57;;;;;;;6.47;2.08;;;;;;;-145.79;44.87;78424.50;5325688;28;20501;-73
2023/05/17 10:25:29;;;;;;;6.20;2.10;;;;;;;-145.79;43.79;78416.03;5326091;28;20035;-73
2023/05/17 10:28:01;;;;;;;5.57;2.25;;;;;;;-145.79;47.09;78390.59;5325232;28;20038;-73
2023/05/17 10:30:34;;;;;;;6.07;2.30;;;;;;;-145.79;46.72;78407.53;5324621;28;20470;-72
2023/05/17 10:33:06;;;;;;;9.43;2.67;;;;;;;-145.79;43.81;78403.31;5322782;28;20030;-70
2023/05/17 10:35:39;;;;;;;10.65;4.78;;;;;;;-145.79;43.05;78403.31;5325622;28;20024;-73
2023/05/17 10:38:10;;;;;;;9.40;4.80;;;;;;;-145.79;42.52;78394.81;5324247;28;20059;-74
2023/05/17 10:40:44;;;;;;;10.48;5.15;;;;;;;-145.79;45.61;78384.22;5324470;28;20425;-71
2023/05/17 10:43:16;;;;;;;9.18;2.70;;;;;;;-145.79;44.12;78416.03;5325461;28;20020;-73
2023/05/17 10:45:48;;;;;;;7.55;1.80;;;;;;;-145.79;43.14;78428.75;5325250;28;20140;-73
2023/05/17 10:48:19;;;;;;;5.68;2.65;;;;;;;-145.79;42.56;78449.94;5324557;28;20114;-73
2023/05/17 10:50:52;;;;;;;5.85;2.25;;;;;;;-145.79;43.56;78454.19;5324020;28;20031;-73
2023/05/17 10:53:23;;;;;;;4.43;2.35;;;;;;;-145.79;41.15;78445.72;5321965;28;20035;-75
2023/05/17 10:55:55;;;;;;;7.82;2.17;;;;;;;-145.79;41.05;78433.00;5324078;28;20045;-74
2023/05/17 10:58:27;;;;;;;7.55;2.33;;;;;;;-145.79;42.60;78401.19;5324951;28;20031;-73
2023/05/17 11:00:58;;;;;;;7.47;2.75;;;;;;;-145.79;40.97;78377.88;5324314;28;20026;-74
2023/05/17 11:03:32;;;;;;;4.95;2.10;;;;;;;-145.79;39.56;78390.59;5325335;28;20539;-74
2023/05/17 11:06:19;;;;;;;8.20;3.25;;;;;;;-145.79;38.66;78377.88;5324952;28;20065;-74
2023/05/17 11:09:12;;;;;;;7.35;3.05;;;;;;;-145.79;39.69;78369.38;5315119;28;20024;-73
2023/05/17 11:12:02;;;;;;;7.32;2.55;;;;;;;-145.79;43.09;78339.69;5317280;28;20035;-73
2023/05/17 11:14:53;;;;;;;12.30;4.38;;;;;;;-145.79;40.07;78348.19;5312232;28;20691;-74
2023/05/17 11:17:50;;;;;;;13.57;4.25;;;;;;;-145.79;40.95;78333.34;5305263;28;20089;-74
2023/05/17 11:20:24;;;;;;;13.35;9.57;;;;;;;-145.79;41.57;78322.75;5322557;28;20543;-74
2023/05/17 11:23:01;;;;;;;8.88;2.60;;;;;;;-145.79;40.14;78331.22;5322328;28;20148;-74
2023/05/17 11:25:35;;;;;;;6.75;3.30;;;;;;;-145.79;39.53;78320.63;5320255;28;20051;-74
2023/05/17 11:28:10;;;;;;;5.28;2.17;;;;;;;-145.79;39.42;78299.41;5322339;28;20038;-72
2023/05/17 11:30:50;;;;;;;9.02;2.15;;;;;;;-145.79;42.97;78301.53;5322763;28;20028;-76
2023/05/17 11:33:37;;;;;;;6.00;2.55;;;;;;;-145.79;41.82;78288.81;5323405;28;20028;-72
2023/05/17 11:36:20;;;;;;;4.85;2.00;;;;;;;-145.79;40.70;78273.97;5295497;28;20035;-70
2023/05/17 11:39:12;;;;;;;4.72;2.20;;;;;;;-145.79;40.09;78276.09;5323594;28;20023;-73
2023/05/17 11:41:50;;;;;;;7.80;2.25;;;;;;;-145.79;39.18;78280.34;5323257;28;20023;-73
2023/05/17 11:44:24;;;;;;;5.75;1.90;;;;;;;-145.79;38.86;78293.06;5322007;28;20039;-74
2023/05/17 11:47:08;;;;;;;5.70;2.78;;;;;;;-145.79;39.74;78261.25;5305133;28;20465;-73
2023/05/17 11:49:40;;;;;;;6.22;3.45;;;;;;;-145.79;38.61;78259.13;5323663;28;20069;-73
2023/05/17 11:52:15;;;;;;;9.57;2.55;;;;;;;-145.79;38.93;78248.53;5322094;28;20023;-73
2023/05/17 11:54:47;;;;;;;9.60;2.45;;;;;;;-145.79;38.93;78269.75;5323600;28;20023;-73
2023/05/17 11:57:21;;;;;;;5.05;1.95;;;;;;;-145.79;38.61;78254.91;5321932;28;20038;-74
2023/05/17 12:00:03;;;;;;;7.50;2.22;;;;;;;-145.79;39.22;78233.69;5323408;28;20031;-73
2023/05/17 12:02:35;;;;;;;4.78;1.80;;;;;;;-145.79;40.65;78246.41;5322565;28;20038;-73
2023/05/17 12:05:08;;;;;;;6.63;2.20;;;;;;;-145.79;38.74;78240.06;5322252;28;20024;-74
2023/05/17 12:07:39;;;;;;;5.53;2.20;;;;;;;-145.79;39.92;78242.19;5323485;28;20068;-73
2023/05/17 12:10:13;;;;;;;7.70;2.75;;;;;;;-145.79;38.12;78225.22;5321252;28;20040;-73
2023/05/17 12:12:45;;;;;;;3.75;1.90;;;;;;;-145.79;39.26;78212.50;5320867;28;20416;-73
2023/05/17 12:15:19;;;;;;;7.18;2.40;;;;;;;-145.79;38.37;78206.13;5326949;28;20039;-73
2023/05/17 12:17:53;;;;;;;6.68;1.65;;;;;;;-145.79;37.25;78199.78;5316482;28;20027;-73
2023/05/17 12:20:25;;;;;;;4.50;1.70;;;;;;;-145.79;36.57;78204.00;5326458;28;20038;-73
2023/05/17 12:22:58;;;;;;;5.47;1.60;;;;;;;-145.79;35.98;78187.06;5326220;28;20039;-73
2023/05/17 12:25:30;;;;;;;4.63;2.38;;;;;;;-145.79;36.99;78180.69;5325806;28;20057;-74
2023/05/17 12:28:17;;;;;;;5.22;1.75;;;;;;;-145.79;36.51;78167.97;5321266;28;20464;-74
2023/05/17 12:30:56;;;;;;;8.05;2.72;;;;;;;-145.79;38.07;78165.84;5327081;28;20027;-74
2023/05/17 12:33:38;;;;;;;7.15;2.03;;;;;;;-145.79;36.70;78161.63;5323058;28;20023;-75
2023/05/17 12:36:11;;;;;;;3.15;1.58;;;;;;;-145.79;37.16;78144.66;5326198;28;20034;-74
2023/05/17 12:38:44;;;;;;;4.70;1.70;;;;;;;-145.79;36.93;78138.28;5327098;28;20044;-74
2023/05/17 12:41:15;;;;;;;6.45;1.83;;;;;;;-145.79;36.85;78131.94;5325986;28;20452;-71
2023/05/17 12:43:48;;;;;;;7.65;2.67;;;;;;;-145.79;37.60;78140.41;5326756;28;20106;-72
2023/05/17 12:46:22;;;;;;;7.40;2.05;;;;;;;-145.79;36.35;78136.19;5325658;28;20023;-72
2023/05/17 12:48:53;;;;;;;4.80;1.67;;;;;;;-145.79;36.01;78153.13;5324869;28;20363;-72
2023/05/17 12:51:25;;;;;;;5.93;2.10;;;;;;;-145.79;36.25;78138.28;5326094;28;20039;-71
2023/05/17 12:53:58;;;;;;;8.98;2.40;;;;;;;-145.79;36.46;78129.81;5325283;28;20016;-73
2023/05/17 12:56:29;;;;;;;5.05;1.80;;;;;;;-145.79;36.17;78127.69;5326077;28;20023;-71
2023/05/17 12:59:06;;;;;;;3.60;1.67;;;;;;;-145.79;36.03;78119.22;5326560;28;20447;-72
2023/05/17 13:01:51;;;;;;;5.35;1.60;;;;;;;-145.79;37.87;78106.50;5325601;28;20036;-73
2023/05/17 13:04:33;;;;;;;5.90;2.20;;;;;;;-145.79;36.94;78072.56;5326026;28;20690;-73
2023/05/17 13:07:05;;;;;;;4.47;1.80;;;;;;;-145.79;36.21;78087.41;5322642;28;20441;-72
2023/05/17 13:09:48;;;;;;;3.97;1.80;;;;;;;-145.79;35.75;78085.28;5315800;28;20072;-72
2023/05/17 13:12:23;;;;;;;5.97;1.90;;;;;;;-145.79;34.57;78078.94;5326037;28;20466;-71
2023/05/17 13:14:55;;;;;;;;;;;;;;;-145.79;35.94;78042.91;5325342;28;20027;-72
2023/05/17 13:17:34;;;;;;;5.55;2.60;;;;;;;-145.79;34.47;78070.44;5325263;28;19926;-73
2023/05/17 13:20:07;;;;;;;6.95;1.98;;;;;;;-145.79;33.53;78110.72;5325709;28;20403;-71
2023/05/17 13:22:45;;;;;;;6.43;2.47;;;;;;;-145.79;34.66;78091.66;5324620;28;20490;-73
2023/05/17 13:25:17;;;;;;;3.95;1.67;;;;;;;-145.79;33.94;78078.94;5303305;28;20118;-72
2023/05/17 13:27:48;;;;;;;5.85;1.83;;;;;;;-145.79;34.49;78093.78;5324982;28;20090;-72
2023/05/17 13:30:19;;;;;;;7.15;1.92;;;;;;;-145.79;33.14;78091.66;5323757;28;20443;-73
2023/05/17 13:32:51;;;;;;;4.00;1.65;;;;;;;-145.79;35.17;78078.94;5326234;28;20031;-72
2023/05/17 13:35:22;;;;;;;3.67;1.63;;;;;;;-145.79;33.40;78083.19;5325508;28;20039;-74
2023/05/17 13:37:54;;;;;;;4.95;2.42;;;;;;;-145.79;32.49;78064.09;5325413;28;20031;-74
2023/05/17 13:40:25;;;;;;;8.20;4.57;;;;;;;-145.79;33.93;78064.09;5325519;28;20099;-69
2023/05/17 13:42:56;;;;;;;5.72;1.60;;;;;;;-145.79;33.74;78036.53;5323141;28;20030;-71
2023/05/17 13:45:27;;;;;;;6.32;1.98;;;;;;;-145.79;32.67;78038.66;5325524;28;20032;-71
2023/05/17 13:47:59;;;;;;;7.55;3.65;;;;;;;-145.79;32.45;78034.41;5324251;28;20027;-71
2023/05/17 13:50:30;;;;;;;5.78;3.50;;;;;;;-145.79;33.60;78059.84;5324478;28;20028;-71
2023/05/17 13:53:02;;;;;;;4.72;2.33;;;;;;;-145.79;33.27;78064.09;5312918;28;20705;-71
2023/05/17 13:55:33;;;;;;;7.45;2.10;;;;;;;-145.79;33.01;78045.00;5308535;28;20032;-71
2023/05/17 13:58:04;;;;;;;6.35;2.25;;;;;;;-145.79;32.35;78059.84;5303729;28;20050;-71
2023/05/17 14:00:36;;;;;;;3.85;1.60;;;;;;;-145.79;33.18;78017.44;5317084;28;20105;-71
2023/05/17 14:03:07;;;;;;;5.55;1.80;;;;;;;-145.79;32.39;78055.63;5322977;28;20051;-71
2023/05/17 14:05:39;;;;;;;7.60;3.10;;;;;;;-145.79;32.63;78047.13;5323435;28;20384;-71
2023/05/17 14:08:11;;;;;;;8.43;5.80;;;;;;;-145.79;31.89;78042.91;5324107;28;20039;-71
2023/05/17 14:10:43;;;;;;;6.15;2.10;;;;;;;-145.79;32.33;78019.56;5324777;28;20555;-71
2023/05/17 14:13:14;;;;;;;5.78;2.47;;;;;;;-145.79;32.00;78042.91;5324324;28;20016;-72
2023/05/17 14:15:45;;;;;;;6.20;2.20;;;;;;;-145.79;32.83;78025.94;5323489;28;20034;-73
2023/05/17 14:18:17;;;;;;;4.20;2.33;;;;;;;-145.79;32.23;78030.19;5323843;28;20450;-76
2023/05/17 14:20:50;;;;;;;9.38;3.08;;;;;;;-145.79;32.23;78011.09;5323024;28;20023;-79
2023/05/17 14:23:21;;;;;;;6.65;2.53;;;;;;;-145.79;32.44;77981.41;5322275;28;20058;-80
2023/05/17 14:25:52;;;;;;;7.18;2.50;;;;;;;-145.79;32.28;77983.53;5321902;28;20533;-75
2023/05/17 14:28:24;;;;;;;5.47;1.85;;;;;;;-145.79;32.37;78008.97;5321305;28;20194;-76
2023/05/17 14:30:55;;;;;;;4.63;2.40;;;;;;;-145.79;31.78;77966.56;5321296;28;20118;-76
2023/05/17 14:33:27;;;;;;;4.97;2.00;;;;;;;-145.79;31.13;77979.28;5311116;28;20020;-79
2023/05/17 14:35:58;;;;;;;8.38;2.78;;;;;;;-145.79;31.08;77958.09;5324875;28;20069;-79
2023/05/17 14:38:29;;;;;;;5.72;1.80;;;;;;;-145.79;30.39;77987.78;5325218;28;20024;-79
2023/05/17 14:41:02;;;;;;;5.65;3.10;;;;;;;-145.79;31.24;77983.53;5325319;28;20106;-80
2023/05/17 14:43:33;;;;;;;6.95;2.30;;;;;;;-145.79;30.75;77992.00;5325243;28;20023;-79
2023/05/17 14:46:05;;;;;;;9.48;3.90;;;;;;;-145.79;31.79;77983.53;5324210;28;20534;-80
2023/05/17 14:48:37;;;;;;;6.72;2.38;;;;;;;-145.79;31.61;77970.81;5324804;28;20106;-80
2023/05/17 14:51:08;;;;;;;7.65;4.28;;;;;;;-145.79;30.54;77983.53;5323588;28;20020;-81
2023/05/17 14:53:39;;;;;;;7.47;2.20;;;;;;;-145.79;32.31;77966.56;5324974;28;20031;-80
2023/05/17 14:56:14;;;;;;;5.35;1.83;;;;;;;-145.79;31.50;77977.19;5326147;28;20065;-80
2023/05/17 14:58:46;;;;;;;5.28;2.53;;;;;;;-145.79;30.11;78034.41;5327924;28;20031;-81
2023/05/17 15:01:17;;;;;;;5.25;2.53;;;;;;;-145.79;31.41;78023.81;5340008;28;20024;-76
2023/05/17 15:03:49;;;;;;;5.63;2.35;;;;;;;-145.79;31.62;78034.41;5338275;28;20076;-80
2023/05/17 15:06:23;;;;;;;6.40;2.15;;;;;;;-145.79;31.97;78036.53;5339120;28;20019;-79
2023/05/17 15:08:54;;;;;;;7.85;2.15;;;;;;;-145.79;31.88;78032.28;5338546;28;20088;-78
2023/05/17 15:11:26;;;;;;;6.05;2.53;;;;;;;-145.79;31.60;78076.81;5341453;28;20035;-78
2023/05/17 15:13:57;;;;;;;7.63;1.80;;;;;;;-145.79;30.88;78038.66;5340324;28;20075;-77
2023/05/17 15:16:29;;;;;;;7.53;3.17;;;;;;;-145.79;30.91;78059.84;5339773;28;20016;-79
2023/05/17 15:19:05;;;;;;;4.90;2.10;;;;;;;-145.79;31.55;78055.63;5340882;28;20061;-79
2023/05/17 15:21:36;;;;;;;9.02;2.67;;;;;;;-145.79;30.37;78076.81;5335168;28;20056;-79
2023/05/17 15:24:11;;;;;;;4.75;2.50;;;;;;;-145.79;30.83;78095.91;5330047;28;20455;-79
2023/05/17 15:26:43;;;;;;;7.47;2.25;;;;;;;-145.79;31.31;78085.28;5326641;28;20019;-75
2023/05/17 15:29:15;;;;;;;10.40;2.22;;;;;;;-145.79;31.35;78072.56;5323036;28;20030;-72
2023/05/17 15:31:46;;;;;;;6.47;2.30;;;;;;;-145.79;32.03;78102.25;5320819;28;20490;-71
2023/05/17 15:34:17;;;;;;;6.95;2.75;;;;;;;-145.79;32.99;78083.19;5322290;28;20109;-69
2023/05/17 15:36:49;;;;;;;8.57;2.38;;;;;;;-145.79;31.43;78095.91;5323064;28;20020;-78
2023/05/17 15:39:22;;;;;;;5.97;2.17;;;;;;;-145.79;31.85;78087.41;5322893;28;20050;-76
2023/05/17 15:41:55;;;;;;;5.88;1.80;;;;;;;-145.79;31.47;78085.28;5322755;28;20032;-76
2023/05/17 15:44:27;;;;;;;5.78;2.00;;;;;;;-145.79;30.79;78093.78;5326756;28;20478;-73
2023/05/17 15:46:58;;;;;;;6.82;2.42;;;;;;;-145.79;31.54;78081.06;5327901;28;20076;-72
2023/05/17 15:49:29;;;;;;;4.70;2.45;;;;;;;-145.79;31.97;78106.50;5327877;28;20031;-73
2023/05/17 15:52:00;;;;;;;29.83;22.33;;;;;;;-145.79;31.08;78089.53;5333232;28;20035;-75
2023/05/17 15:54:32;;;;;;;25.02;17.92;;;;;;;-145.79;30.97;78110.72;5330339;28;20051;-76
2023/05/17 15:57:09;;;;;;;6.93;3.10;;;;;;;-145.79;30.41;78140.41;5326272;28;20487;-75
2023/05/17 15:59:41;;;;;;;6.90;3.25;;;;;;;-145.79;29.63;78155.25;5321338;28;20477;-75
2023/05/17 16:02:12;;;;;;;4.68;2.10;;;;;;;-145.79;29.81;78114.97;5314600;28;20036;-77
2023/05/17 16:04:43;;;;;;;7.07;2.10;;;;;;;-145.79;30.29;78098.00;5319300;28;20485;-75
2023/05/17 16:07:15;;;;;;;4.45;1.85;;;;;;;-145.79;31.14;78089.53;5322256;28;20106;-76
2023/05/17 16:09:46;;;;;;;6.57;2.35;;;;;;;-145.79;30.21;78093.78;5322523;28;20024;-78
2023/05/17 16:12:18;;;;;;;7.30;2.45;;;;;;;-145.79;30.79;78089.53;5322346;28;20050;-77
2023/05/17 16:14:49;;;;;;;6.18;2.17;;;;;;;-145.79;30.53;78093.78;5326453;28;20049;-75
2023/05/17 16:17:20;;;;;;;4.47;1.75;;;;;;;-145.79;29.75;78119.22;5327551;28;20036;-76
2023/05/17 16:19:52;;;;;;;7.25;2.17;;;;;;;-145.79;29.95;78106.50;5327389;28;20046;-77
2023/05/17 16:22:24;;;;;;;5.70;2.85;;;;;;;-145.79;30.65;78087.41;5327049;28;20036;-76
2023/05/17 16:24:55;;;;;;;6.95;2.90;;;;;;;-145.79;30.57;78106.50;5326520;28;20028;-76
2023/05/17 16:27:27;;;;;;;8.88;2.53;;;;;;;-145.79;31.23;78070.44;5326706;28;20015;-75
2023/05/17 16:29:58;;;;;;;7.25;2.53;;;;;;;-145.79;31.18;78087.41;5327577;28;20108;-76
2023/05/17 16:32:31;;;;;;;4.95;1.67;;;;;;;-145.79;31.18;78098.00;5319564;28;20080;-78
2023/05/17 16:35:02;;;;;;;7.50;2.53;;;;;;;-145.79;30.91;78076.81;5326577;28;20115;-76
2023/05/17 16:37:35;;;;;;;8.25;2.40;;;;;;;-145.79;30.74;78089.53;5327236;28;20034;-78
2023/05/17 16:40:07;;;;;;;7.38;2.25;;;;;;;-145.79;30.64;78095.91;5326889;28;20027;-78
2023/05/17 16:42:38;;;;;;;5.38;2.20;;;;;;;-145.79;30.56;78076.81;5326946;28;20031;-78
2023/05/17 16:45:10;;;;;;;6.30;2.53;;;;;;;-145.79;30.54;78091.66;5326522;28;20039;-76
2023/05/17 16:47:41;;;;;;;9.48;3.25;;;;;;;-145.79;30.64;78078.94;5327315;28;20352;-76
2023/05/17 16:50:15;;;;;;;5.30;2.53;;;;;;;-145.79;31.09;78093.78;5327283;28;20355;-75
2023/05/17 16:52:48;;;;;;;6.95;2.75;;;;;;;-145.79;31.07;78049.25;5326300;28;20049;-75
